Aegean Viii — SXKO — position and weather

sailwx.info

Track history (hours):
 
Tides and Currents Weather Stations Pressure Air Temp Water Temp Dewpoint Dewpoint Depression Visibility Wind Speed Wind Dir Waves Ship Positions

Aegean Viii

Last reported at 2014-Dec-20 15:15 UTC. Time now 2014-Dec-23 04:23 UTC.
Position N 38°14' E 021°43'.

Length 75 m; draft 5.4 m.

Type: Tanker. MMSI: 240732000.

Date/timePositionNaut miles runAvg speedWind from/ knotsBaromVisibWave heightAir tempDewpointWater temp
2014-Dec-20 15:15N 38°14' E 021°43'78 2.7
2014-Dec-19 10:34N 37°56' E 023°20'8 7.6
2014-Dec-19 09:34N 38°01' E 023°27'3 2.8
2014-Dec-19 08:30N 38°02' E 023°31'0 0.0
2014-Dec-19 07:33N 38°02' E 023°31'0 0.0
2014-Dec-19 06:33N 38°02' E 023°31'0 0.0
2014-Dec-19 05:33N 38°02' E 023°31'0 0.0
2014-Dec-19 04:34N 38°02' E 023°31'0 0.0
2014-Dec-19 03:33N 38°02' E 023°31'0 0.0
2014-Dec-19 02:33N 38°02' E 023°31'0 0.0
2014-Dec-19 01:33N 38°02' E 023°31'0 0.0
2014-Dec-19 00:34N 38°02' E 023°31'0 0.0
2014-Dec-18 23:33N 38°02' E 023°31'0 0.0
2014-Dec-18 22:33N 38°02' E 023°31'0 0.0
2014-Dec-18 21:33N 38°02' E 023°31'1 1.0
2014-Dec-18 20:33N 38°02' E 023°32'0 0.0
2014-Dec-18 19:33N 38°02' E 023°32'0 0.0
2014-Dec-18 18:33N 38°02' E 023°32'0 0.0
2014-Dec-18 17:32N 38°02' E 023°32'0 0.0
2014-Dec-18 16:33N 38°02' E 023°32'0 0.0
2014-Dec-18 15:33N 38°02' E 023°32'0 0.0
2014-Dec-18 14:33N 38°02' E 023°32'0 0.0
2014-Dec-18 13:33N 38°02' E 023°32'0 0.0
2014-Dec-18 12:34N 38°02' E 023°32'0 0.0
2014-Dec-18 11:33N 38°02' E 023°32'0 0.0
2014-Dec-18 10:33N 38°02' E 023°32'0 0.0
2014-Dec-18 09:33N 38°02' E 023°32'0 0.0
2014-Dec-18 08:33N 38°02' E 023°32'0 0.0
2014-Dec-18 07:33N 38°02' E 023°32'0 0.0
2014-Dec-18 06:33N 38°02' E 023°32'0 0.0
2014-Dec-17 14:33N 38°02' E 023°32'0 0.0
2014-Dec-17 13:27N 38°02' E 023°32'0 0.0
2014-Dec-17 12:15N 38°02' E 023°32'0 0.0
2014-Dec-17 11:25N 38°02' E 023°32'0 0.0
2014-Dec-17 10:11N 38°02' E 023°32'0 0.0
2014-Dec-17 09:33N 38°02' E 023°32'0 0.0
2014-Dec-16 11:30N 38°02' E 023°32'0 0.0
2014-Dec-16 10:33N 38°02' E 023°32'0 0.0
2014-Dec-16 09:34N 38°02' E 023°32'0 0.0
2014-Dec-16 08:34N 38°02' E 023°32'0 0.0
2014-Dec-16 07:33N 38°02' E 023°32'0 0.0
2014-Dec-16 06:34N 38°02' E 023°32'0 0.0
2014-Dec-16 05:33N 38°02' E 023°32'0 0.0
2014-Dec-15 12:33N 38°02' E 023°32'0 0.0
2014-Dec-15 11:33N 38°02' E 023°32'6 5.5
2014-Dec-15 10:33N 37°57' E 023°35'2 1.6
2014-Dec-15 09:33N 37°58' E 023°37'0 0.0
2014-Dec-15 08:33N 37°58' E 023°37'1 1.5
2014-Dec-15 07:33N 37°57' E 023°35'6 5.6
2014-Dec-15 06:33N 38°02' E 023°32'0 0.0
2014-Dec-15 05:33N 38°02' E 023°32'0 0.0
2014-Dec-14 19:17N 38°02' E 023°32'2 3.1
2014-Dec-14 18:33N 38°00' E 023°33'4 3.6
2014-Dec-14 17:34N 37°57' E 023°36'0 0.0
2014-Dec-14 16:33N 37°57' E 023°36'0 0.1
2014-Dec-14 15:33N 37°57' E 023°36'1 1.0
2014-Dec-14 14:33N 37°57' E 023°34'0 0.0
2014-Dec-14 13:33N 37°57' E 023°34'0 0.0
2014-Dec-14 12:33N 37°57' E 023°34'0 0.0
2014-Dec-14 11:33N 37°57' E 023°34'0 0.0
2014-Dec-14 10:33N 37°57' E 023°34'0 0.0
2014-Dec-14 09:33N 37°57' E 023°34'0 0.0
2014-Dec-14 08:32N 37°57' E 023°34'0 0.0
2014-Dec-14 07:33N 37°57' E 023°35'0 0.1
2014-Dec-14 06:33N 37°57' E 023°34'5 4.7
2014-Dec-14 05:33N 37°53' E 023°33'1 0.9
2014-Dec-14 04:33N 37°52' E 023°32'0 0.0
2014-Dec-14 03:33N 37°52' E 023°32'0 0.0
2014-Dec-14 02:33N 37°52' E 023°32'0 0.1
2014-Dec-14 01:33N 37°52' E 023°32'0 0.0
2014-Dec-14 00:33N 37°52' E 023°32'0 0.0
2014-Dec-13 23:32N 37°52' E 023°32'0 0.0
2014-Dec-13 22:33N 37°52' E 023°32'5 5.4
2014-Dec-13 21:33N 37°57' E 023°35'0 0.1
2014-Dec-13 20:33N 37°57' E 023°35'0 0.0
2014-Dec-13 19:33N 37°57' E 023°35'0 0.0
2014-Dec-13 18:33N 37°57' E 023°35'0 0.1
2014-Dec-13 17:33N 37°57' E 023°35'0 0.0
2014-Dec-13 16:33N 37°57' E 023°35'2 1.5
2014-Dec-13 15:33N 37°58' E 023°37'0 0.0
2014-Dec-13 14:33N 37°58' E 023°37'0 0.0
2014-Dec-13 13:33N 37°58' E 023°37'0 0.0
2014-Dec-13 12:33N 37°58' E 023°37'2 1.7
2014-Dec-13 11:33N 37°57' E 023°34'4 4.0
2014-Dec-13 10:33N 38°01' E 023°32'1 1.3
2014-Dec-13 09:33N 38°02' E 023°32'0 0.0
2014-Dec-13 08:33N 38°02' E 023°32'0 0.0
2014-Dec-13 07:33N 38°02' E 023°32'0 0.0
2014-Dec-13 06:33N 38°02' E 023°32'0 0.0
2014-Dec-13 05:33N 38°02' E 023°32'0 0.0
2014-Dec-12 19:31N 38°02' E 023°32'0 0.0
2014-Dec-12 18:31N 38°02' E 023°32'0 0.0
2014-Dec-12 17:33N 38°02' E 023°32'0 0.0
2014-Dec-12 16:33N 38°02' E 023°32'3 3.0
2014-Dec-12 15:34N 38°02' E 023°36'0 0.1
2014-Dec-12 14:34N 38°02' E 023°36'0 0.0
2014-Dec-12 13:34N 38°02' E 023°36'0 0.0
2014-Dec-12 12:34N 38°02' E 023°36'0 0.0
2014-Dec-12 11:34N 38°02' E 023°36'0 0.0
2014-Dec-12 10:34N 38°02' E 023°36'0 0.0
2014-Dec-12 09:34N 38°02' E 023°36'0 0.0
2014-Dec-12 08:34N 38°02' E 023°36'0 0.0
2014-Dec-12 07:33N 38°02' E 023°36'0 0.0
2014-Dec-12 06:33N 38°02' E 023°36'0 0.5
2014-Dec-12 05:33N 38°01' E 023°35'0 0.1
2014-Dec-12 04:33N 38°01' E 023°35'0 0.0
2014-Dec-12 03:33N 38°01' E 023°35'0 0.0
2014-Dec-12 02:33N 38°01' E 023°35'4 3.6
2014-Dec-12 01:33N 38°01' E 023°31'9 8.4
2014-Dec-12 00:30N 37°54' E 023°23'7 7.9
2014-Dec-11 23:34N 37°54' E 023°32'4 4.1
2014-Dec-11 22:33N 37°57' E 023°36'0 0.0
2014-Dec-11 21:34N 37°57' E 023°36'0 0.0
2014-Dec-11 20:33N 37°57' E 023°36'0 0.2
2014-Dec-11 19:33N 37°57' E 023°36'1 1.1
2014-Dec-11 18:33N 37°57' E 023°34'0 0.0
2014-Dec-11 17:33N 37°57' E 023°34'0 0.0
2014-Dec-11 16:33N 37°57' E 023°34'0 0.1
2014-Dec-11 15:33N 37°57' E 023°34'2 2.0
2014-Dec-11 14:33N 37°59' E 023°33'3 3.5
2014-Dec-11 13:33N 38°02' E 023°32'0 0.0
2014-Dec-11 12:33N 38°02' E 023°32'0 0.0
2014-Dec-11 11:33N 38°02' E 023°32'0 0.0
2014-Dec-11 10:33N 38°02' E 023°32'0 0.0
2014-Dec-11 09:33N 38°02' E 023°32'0 0.0
2014-Dec-11 08:33N 38°02' E 023°32'0 0.0
2014-Dec-11 07:33N 38°02' E 023°32'0 0.0
2014-Dec-11 06:33N 38°02' E 023°32'  
Track history (hours):
 
Tides and Currents Weather Stations Pressure Air Temp Water Temp Dewpoint Dewpoint Depression Visibility Wind Speed Wind Dir Waves Ship Positions

Aegean Viii

Last reported at 2014-Dec-20 15:15 UTC. Time now 2014-Dec-23 04:23 UTC.
Position N 38°14' E 021°43'.

Length 75 m; draft 5.4 m.

Type: Tanker. MMSI: 240732000.

Date/timePositionNaut miles runAvg speedWind from/ knotsBaromVisibWave heightAir tempDewpointWater temp
2014-Dec-20 15:15N 38°14' E 021°43'78 2.7
2014-Dec-19 10:34N 37°56' E 023°20'8 7.6
2014-Dec-19 09:34N 38°01' E 023°27'3 2.8
2014-Dec-19 08:30N 38°02' E 023°31'0 0.0
2014-Dec-19 07:33N 38°02' E 023°31'0 0.0
2014-Dec-19 06:33N 38°02' E 023°31'0 0.0
2014-Dec-19 05:33N 38°02' E 023°31'0 0.0
2014-Dec-19 04:34N 38°02' E 023°31'0 0.0
2014-Dec-19 03:33N 38°02' E 023°31'0 0.0
2014-Dec-19 02:33N 38°02' E 023°31'0 0.0
2014-Dec-19 01:33N 38°02' E 023°31'0 0.0
2014-Dec-19 00:34N 38°02' E 023°31'0 0.0
2014-Dec-18 23:33N 38°02' E 023°31'0 0.0
2014-Dec-18 22:33N 38°02' E 023°31'0 0.0
2014-Dec-18 21:33N 38°02' E 023°31'1 1.0
2014-Dec-18 20:33N 38°02' E 023°32'0 0.0
2014-Dec-18 19:33N 38°02' E 023°32'0 0.0
2014-Dec-18 18:33N 38°02' E 023°32'0 0.0
2014-Dec-18 17:32N 38°02' E 023°32'0 0.0
2014-Dec-18 16:33N 38°02' E 023°32'0 0.0
2014-Dec-18 15:33N 38°02' E 023°32'0 0.0
2014-Dec-18 14:33N 38°02' E 023°32'0 0.0
2014-Dec-18 13:33N 38°02' E 023°32'0 0.0
2014-Dec-18 12:34N 38°02' E 023°32'0 0.0
2014-Dec-18 11:33N 38°02' E 023°32'0 0.0
2014-Dec-18 10:33N 38°02' E 023°32'0 0.0
2014-Dec-18 09:33N 38°02' E 023°32'0 0.0
2014-Dec-18 08:33N 38°02' E 023°32'0 0.0
2014-Dec-18 07:33N 38°02' E 023°32'0 0.0
2014-Dec-18 06:33N 38°02' E 023°32'0 0.0
2014-Dec-17 14:33N 38°02' E 023°32'0 0.0
2014-Dec-17 13:27N 38°02' E 023°32'0 0.0
2014-Dec-17 12:15N 38°02' E 023°32'0 0.0
2014-Dec-17 11:25N 38°02' E 023°32'0 0.0
2014-Dec-17 10:11N 38°02' E 023°32'0 0.0
2014-Dec-17 09:33N 38°02' E 023°32'0 0.0
2014-Dec-16 11:30N 38°02' E 023°32'0 0.0
2014-Dec-16 10:33N 38°02' E 023°32'0 0.0
2014-Dec-16 09:34N 38°02' E 023°32'0 0.0
2014-Dec-16 08:34N 38°02' E 023°32'0 0.0
2014-Dec-16 07:33N 38°02' E 023°32'0 0.0
2014-Dec-16 06:34N 38°02' E 023°32'0 0.0
2014-Dec-16 05:33N 38°02' E 023°32'0 0.0
2014-Dec-15 12:33N 38°02' E 023°32'0 0.0
2014-Dec-15 11:33N 38°02' E 023°32'6 5.5
2014-Dec-15 10:33N 37°57' E 023°35'2 1.6
2014-Dec-15 09:33N 37°58' E 023°37'0 0.0
2014-Dec-15 08:33N 37°58' E 023°37'1 1.5
2014-Dec-15 07:33N 37°57' E 023°35'6 5.6
2014-Dec-15 06:33N 38°02' E 023°32'0 0.0
2014-Dec-15 05:33N 38°02' E 023°32'0 0.0
2014-Dec-14 19:17N 38°02' E 023°32'2 3.1
2014-Dec-14 18:33N 38°00' E 023°33'4 3.6
2014-Dec-14 17:34N 37°57' E 023°36'0 0.0
2014-Dec-14 16:33N 37°57' E 023°36'0 0.1
2014-Dec-14 15:33N 37°57' E 023°36'1 1.0
2014-Dec-14 14:33N 37°57' E 023°34'0 0.0
2014-Dec-14 13:33N 37°57' E 023°34'0 0.0
2014-Dec-14 12:33N 37°57' E 023°34'0 0.0
2014-Dec-14 11:33N 37°57' E 023°34'0 0.0
2014-Dec-14 10:33N 37°57' E 023°34'0 0.0
2014-Dec-14 09:33N 37°57' E 023°34'0 0.0
2014-Dec-14 08:32N 37°57' E 023°34'0 0.0
2014-Dec-14 07:33N 37°57' E 023°35'0 0.1
2014-Dec-14 06:33N 37°57' E 023°34'5 4.7
2014-Dec-14 05:33N 37°53' E 023°33'1 0.9
2014-Dec-14 04:33N 37°52' E 023°32'0 0.0
2014-Dec-14 03:33N 37°52' E 023°32'0 0.0
2014-Dec-14 02:33N 37°52' E 023°32'0 0.1
2014-Dec-14 01:33N 37°52' E 023°32'0 0.0
2014-Dec-14 00:33N 37°52' E 023°32'0 0.0
2014-Dec-13 23:32N 37°52' E 023°32'0 0.0
2014-Dec-13 22:33N 37°52' E 023°32'5 5.4
2014-Dec-13 21:33N 37°57' E 023°35'0 0.1
2014-Dec-13 20:33N 37°57' E 023°35'0 0.0
2014-Dec-13 19:33N 37°57' E 023°35'0 0.0
2014-Dec-13 18:33N 37°57' E 023°35'0 0.1
2014-Dec-13 17:33N 37°57' E 023°35'0 0.0
2014-Dec-13 16:33N 37°57' E 023°35'2 1.5
2014-Dec-13 15:33N 37°58' E 023°37'0 0.0
2014-Dec-13 14:33N 37°58' E 023°37'0 0.0
2014-Dec-13 13:33N 37°58' E 023°37'0 0.0
2014-Dec-13 12:33N 37°58' E 023°37'2 1.7
2014-Dec-13 11:33N 37°57' E 023°34'4 4.0
2014-Dec-13 10:33N 38°01' E 023°32'1 1.3
2014-Dec-13 09:33N 38°02' E 023°32'0 0.0
2014-Dec-13 08:33N 38°02' E 023°32'0 0.0
2014-Dec-13 07:33N 38°02' E 023°32'0 0.0
2014-Dec-13 06:33N 38°02' E 023°32'0 0.0
2014-Dec-13 05:33N 38°02' E 023°32'0 0.0
2014-Dec-12 19:31N 38°02' E 023°32'0 0.0
2014-Dec-12 18:31N 38°02' E 023°32'0 0.0
2014-Dec-12 17:33N 38°02' E 023°32'0 0.0
2014-Dec-12 16:33N 38°02' E 023°32'3 3.0
2014-Dec-12 15:34N 38°02' E 023°36'0 0.1
2014-Dec-12 14:34N 38°02' E 023°36'0 0.0
2014-Dec-12 13:34N 38°02' E 023°36'0 0.0
2014-Dec-12 12:34N 38°02' E 023°36'0 0.0
2014-Dec-12 11:34N 38°02' E 023°36'0 0.0
2014-Dec-12 10:34N 38°02' E 023°36'0 0.0
2014-Dec-12 09:34N 38°02' E 023°36'0 0.0
2014-Dec-12 08:34N 38°02' E 023°36'0 0.0
2014-Dec-12 07:33N 38°02' E 023°36'0 0.0
2014-Dec-12 06:33N 38°02' E 023°36'0 0.5
2014-Dec-12 05:33N 38°01' E 023°35'0 0.1
2014-Dec-12 04:33N 38°01' E 023°35'0 0.0
2014-Dec-12 03:33N 38°01' E 023°35'0 0.0
2014-Dec-12 02:33N 38°01' E 023°35'4 3.6
2014-Dec-12 01:33N 38°01' E 023°31'9 8.4
2014-Dec-12 00:30N 37°54' E 023°23'7 7.9
2014-Dec-11 23:34N 37°54' E 023°32'4 4.1
2014-Dec-11 22:33N 37°57' E 023°36'0 0.0
2014-Dec-11 21:34N 37°57' E 023°36'0 0.0
2014-Dec-11 20:33N 37°57' E 023°36'0 0.2
2014-Dec-11 19:33N 37°57' E 023°36'1 1.1
2014-Dec-11 18:33N 37°57' E 023°34'0 0.0
2014-Dec-11 17:33N 37°57' E 023°34'0 0.0
2014-Dec-11 16:33N 37°57' E 023°34'0 0.1
2014-Dec-11 15:33N 37°57' E 023°34'2 2.0
2014-Dec-11 14:33N 37°59' E 023°33'3 3.5
2014-Dec-11 13:33N 38°02' E 023°32'0 0.0
2014-Dec-11 12:33N 38°02' E 023°32'0 0.0
2014-Dec-11 11:33N 38°02' E 023°32'0 0.0
2014-Dec-11 10:33N 38°02' E 023°32'0 0.0
2014-Dec-11 09:33N 38°02' E 023°32'0 0.0
2014-Dec-11 08:33N 38°02' E 023°32'0 0.0
2014-Dec-11 07:33N 38°02' E 023°32'0 0.0
2014-Dec-11 06:33N 38°02' E 023°32'  

Dump ship's entire track history